Time;durP1;ratioP1;P1;durP2;ratioP2;P2;SDS_P1;SDS_P2;PMS_P1;PMS_P2;Temp;Humidity;BMP_temperature;BMP_pressure;BME280_temperature;BME280_humidity;BME280_pressure;Samples;Min_cycle;Max_cycle;Signal;HPM_P1;HPM_P2
2022/05/10 00:01:14;;;;;;;12.70;11.43;;;;;;;;;;5073657;28;20444;-62
2022/05/10 00:03:40;;;;;;;11.47;10.47;;;;;;;;;;5073424;28;20880;-62
2022/05/10 00:06:06;;;;;;;11.60;10.70;;;;;;;;;;5073374;28;20392;-62
2022/05/10 00:08:32;;;;;;;11.33;10.53;;;;;;;;;;5072738;28;20409;-62
2022/05/10 00:10:58;;;;;;;11.77;10.70;;;;;;;;;;5073255;28;20912;-62
2022/05/10 00:13:25;;;;;;;12.30;11.40;;;;;;;;;;5072087;28;20428;-62
2022/05/10 00:15:51;;;;;;;11.67;10.77;;;;;;;;;;5073527;28;20778;-62
2022/05/10 00:18:18;;;;;;;12.17;11.17;;;;;;;;;;5073517;28;20416;-64
2022/05/10 00:20:44;;;;;;;11.47;10.40;;;;;;;;;;5073308;28;20413;-62
2022/05/10 00:23:10;;;;;;;16.90;11.03;;;;;;;;;;5071936;28;20511;-62
2022/05/10 00:25:38;;;;;;;11.27;10.50;;;;;;;;;;5073227;28;20431;-62
2022/05/10 00:28:04;;;;;;;11.23;10.23;;;;;;;;;;5073378;28;20484;-62
2022/05/10 00:30:31;;;;;;;11.50;10.63;;;;;;;;;;5073180;28;20413;-62
2022/05/10 00:32:56;;;;;;;11.30;10.30;;;;;;;;;;5072949;28;20478;-62
2022/05/10 00:35:27;;;;;;;12.07;11.27;;;;;;;;;;5073061;28;20406;-61
2022/05/10 00:37:55;;;;;;;12.30;11.50;;;;;;;;;;5073138;28;20408;-62
2022/05/10 00:40:23;;;;;;;11.40;10.40;;;;;;;;;;5073082;28;20826;-62
2022/05/10 00:42:55;;;;;;;11.63;10.80;;;;;;;;;;5073039;28;20448;-62
2022/05/10 00:45:26;;;;;;;11.73;10.77;;;;;;;;;;5073003;28;20404;-62
2022/05/10 00:48:03;;;;;;;10.60;9.73;;;;;;;;;;5073218;28;20418;-63
2022/05/10 00:50:33;;;;;;;10.70;9.93;;;;;;;;;;5073011;28;20393;-62
2022/05/10 00:53:02;;;;;;;10.30;9.33;;;;;;;;;;5072858;28;20823;-62
2022/05/10 00:55:28;;;;;;;10.13;9.10;;;;;;;;;;5072855;28;20401;-62
2022/05/10 00:58:04;;;;;;;11.40;10.50;;;;;;;;;;5072771;28;20485;-62
2022/05/10 01:00:32;;;;;;;10.10;9.40;;;;;;;;;;5073133;28;20776;-62
2022/05/10 01:03:03;;;;;;;11.03;10.37;;;;;;;;;;5072826;28;20407;-62
2022/05/10 01:05:30;;;;;;;10.83;10.03;;;;;;;;;;5072780;28;20404;-62
2022/05/10 01:07:56;;;;;;;11.00;9.90;;;;;;;;;;5072761;28;20478;-63
2022/05/10 01:10:36;;;;;;;12.10;10.87;;;;;;;;;;5072916;28;20872;-63
2022/05/10 01:13:22;;;;;;;11.60;10.80;;;;;;;;;;5072648;28;20466;-62
2022/05/10 01:15:59;;;;;;;12.10;10.93;;;;;;;;;;5051628;28;20424;-62
2022/05/10 01:18:25;;;;;;;13.63;9.80;;;;;;;;;;5072679;28;20413;-62
2022/05/10 01:20:54;;;;;;;11.60;10.70;;;;;;;;;;5074025;28;20575;-62
2022/05/10 01:23:34;;;;;;;11.53;10.63;;;;;;;;;;5076269;28;20420;-62
2022/05/10 01:26:04;;;;;;;11.67;10.63;;;;;;;;;;5076075;28;20423;-62
2022/05/10 01:28:36;;;;;;;12.43;11.53;;;;;;;;;;5076079;28;20414;-62
2022/05/10 01:31:04;;;;;;;12.07;11.17;;;;;;;;;;5076011;28;20404;-62
2022/05/10 01:33:33;;;;;;;11.87;10.97;;;;;;;;;;5075985;28;20416;-63
2022/05/10 01:36:02;;;;;;;11.70;10.80;;;;;;;;;;5075911;28;20465;-62
2022/05/10 01:38:31;;;;;;;11.40;10.60;;;;;;;;;;5075947;28;20499;-62
2022/05/10 01:41:17;;;;;;;11.47;10.53;;;;;;;;;;5075792;28;20467;-62
2022/05/10 01:43:46;;;;;;;12.40;11.30;;;;;;;;;;5075828;28;20419;-63
2022/05/10 01:46:15;;;;;;;11.60;10.80;;;;;;;;;;5075735;28;20816;-62
2022/05/10 01:48:43;;;;;;;19.13;11.33;;;;;;;;;;5075732;28;20507;-62
2022/05/10 01:51:18;;;;;;;11.00;10.30;;;;;;;;;;5075640;28;20403;-62
2022/05/10 01:53:44;;;;;;;12.30;11.00;;;;;;;;;;5075710;28;20419;-63
2022/05/10 01:56:15;;;;;;;12.83;11.93;;;;;;;;;;5075584;28;20821;-62
2022/05/10 01:58:43;;;;;;;12.70;11.80;;;;;;;;;;5075810;28;20469;-62
2022/05/10 02:01:11;;;;;;;12.27;11.07;;;;;;;;;;5074258;28;20419;-62
2022/05/10 02:04:01;;;;;;;12.10;11.30;;;;;;;;;;5075469;28;20496;-63
2022/05/10 02:06:39;;;;;;;12.40;11.40;;;;;;;;;;5075615;28;20444;-63
2022/05/10 02:09:20;;;;;;;12.33;11.50;;;;;;;;;;5075339;28;20408;-62
2022/05/10 02:12:03;;;;;;;12.40;11.27;;;;;;;;;;5075183;28;20479;-62
2022/05/10 02:14:38;;;;;;;12.13;11.23;;;;;;;;;;5075231;28;20887;-62
2022/05/10 02:17:15;;;;;;;12.60;11.70;;;;;;;;;;5075409;28;20422;-62
2022/05/10 02:19:50;;;;;;;11.70;10.77;;;;;;;;;;5075137;28;20399;-62
2022/05/10 02:22:23;;;;;;;12.27;11.40;;;;;;;;;;5075044;28;20777;-62
2022/05/10 02:24:59;;;;;;;13.03;11.80;;;;;;;;;;5075048;28;20464;-62
2022/05/10 02:27:34;;;;;;;12.57;11.67;;;;;;;;;;5074953;28;20914;-63
2022/05/10 02:30:03;;;;;;;12.60;11.70;;;;;;;;;;5074457;28;20915;-62
2022/05/10 02:35:22;;;;;;;11.70;10.90;;;;;;;;;;5075146;28;20395;-63
2022/05/10 02:37:48;;;;;;;12.63;11.73;;;;;;;;;;5074808;28;20488;-62
2022/05/10 02:40:15;;;;;;;12.37;11.30;;;;;;;;;;5074556;28;20924;-62
2022/05/10 02:42:42;;;;;;;12.40;11.50;;;;;;;;;;5074639;28;20446;-62
2022/05/10 02:45:08;;;;;;;12.70;11.47;;;;;;;;;;5074608;28;20804;-62
2022/05/10 02:47:41;;;;;;;12.73;11.43;;;;;;;;;;5074771;28;20417;-63
2022/05/10 02:50:20;;;;;;;13.17;12.17;;;;;;;;;;5074597;28;20409;-62
2022/05/10 02:52:46;;;;;;;12.80;11.80;;;;;;;;;;5074532;28;20470;-66
2022/05/10 02:55:16;;;;;;;12.27;11.37;;;;;;;;;;5073190;28;20419;-62
2022/05/10 02:57:44;;;;;;;13.27;12.27;;;;;;;;;;5074406;28;20901;-62
2022/05/10 03:00:10;;;;;;;12.60;11.70;;;;;;;;;;5074341;28;20405;-64
2022/05/10 03:02:39;;;;;;;12.67;11.77;;;;;;;;;;5074216;28;20471;-62
2022/05/10 03:05:07;;;;;;;12.63;11.73;;;;;;;;;;5074159;28;20953;-62
2022/05/10 03:07:33;;;;;;;12.80;11.80;;;;;;;;;;5074221;28;20447;-62
2022/05/10 03:09:59;;;;;;;12.90;11.80;;;;;;;;;;5074107;28;20430;-62
2022/05/10 03:12:25;;;;;;;13.10;11.93;;;;;;;;;;5074141;28;20569;-62
2022/05/10 03:14:54;;;;;;;12.00;11.00;;;;;;;;;;5074060;28;20484;-62
2022/05/10 03:17:20;;;;;;;13.03;12.03;;;;;;;;;;5074261;28;20406;-62
2022/05/10 03:19:46;;;;;;;12.37;11.37;;;;;;;;;;5074005;28;20477;-62
2022/05/10 03:22:12;;;;;;;13.10;11.80;;;;;;;;;;5074160;28;20844;-62
2022/05/10 03:24:38;;;;;;;12.27;11.47;;;;;;;;;;5073874;28;20429;-62
2022/05/10 03:27:06;;;;;;;12.37;11.23;;;;;;;;;;5073810;28;20430;-62
2022/05/10 03:29:32;;;;;;;12.30;11.30;;;;;;;;;;5073813;28;20394;-63
2022/05/10 03:31:58;;;;;;;12.47;11.37;;;;;;;;;;5073727;28;20959;-62
2022/05/10 03:37:09;;;;;;;12.03;11.20;;;;;;;;;;5073665;28;20390;-62
2022/05/10 03:39:35;;;;;;;13.33;12.23;;;;;;;;;;5073559;28;20878;-62
2022/05/10 03:42:03;;;;;;;18.20;12.23;;;;;;;;;;5072848;28;20428;-63
2022/05/10 03:44:31;;;;;;;13.03;11.73;;;;;;;;;;5073894;28;20398;-63
2022/05/10 03:46:57;;;;;;;12.73;11.37;;;;;;;;;;5073657;28;20497;-63
2022/05/10 03:49:23;;;;;;;12.83;11.83;;;;;;;;;;5073523;28;20445;-63
2022/05/10 03:51:49;;;;;;;20.57;18.57;;;;;;;;;;5072182;28;20461;-63
2022/05/10 03:54:15;;;;;;;32.80;27.70;;;;;;;;;;5073491;28;20455;-63
2022/05/10 03:56:41;;;;;;;16.23;14.80;;;;;;;;;;5073471;28;20422;-62
2022/05/10 03:59:07;;;;;;;12.53;11.50;;;;;;;;;;5073426;28;20784;-62
2022/05/10 04:01:33;;;;;;;12.67;11.70;;;;;;;;;;5073412;28;20418;-62
2022/05/10 04:04:00;;;;;;;13.20;12.00;;;;;;;;;;5073355;28;20912;-63
2022/05/10 04:06:26;;;;;;;12.70;11.67;;;;;;;;;;5073393;28;20403;-62
2022/05/10 04:08:52;;;;;;;13.03;11.73;;;;;;;;;;5073377;28;20422;-63
2022/05/10 04:11:18;;;;;;;13.30;12.07;;;;;;;;;;5073295;28;20421;-62
2022/05/10 04:13:44;;;;;;;13.97;10.60;;;;;;;;;;5073320;28;20513;-62
2022/05/10 04:16:11;;;;;;;14.97;12.77;;;;;;;;;;5073545;28;20410;-62
2022/05/10 04:18:37;;;;;;;21.20;13.40;;;;;;;;;;5073552;28;20420;-62
2022/05/10 04:21:02;;;;;;;18.50;11.80;;;;;;;;;;5073293;28;20485;-62
2022/05/10 04:23:29;;;;;;;14.43;13.03;;;;;;;;;;5073169;28;20399;-62
2022/05/10 04:25:55;;;;;;;12.00;10.90;;;;;;;;;;5073053;28;20493;-62
2022/05/10 04:28:21;;;;;;;13.17;12.03;;;;;;;;;;5073137;28;20473;-62
2022/05/10 04:30:46;;;;;;;13.17;11.87;;;;;;;;;;5071906;28;20408;-62
2022/05/10 04:33:12;;;;;;;12.23;11.20;;;;;;;;;;5073103;28;20472;-62
2022/05/10 04:35:38;;;;;;;12.50;11.40;;;;;;;;;;5073378;28;20750;-62
2022/05/10 04:38:05;;;;;;;12.00;11.10;;;;;;;;;;5073036;28;20410;-62
2022/05/10 04:43:16;;;;;;;13.13;12.03;;;;;;;;;;5073323;28;20394;-62
2022/05/10 04:45:42;;;;;;;15.43;12.30;;;;;;;;;;5073057;28;20452;-63
2022/05/10 04:48:08;;;;;;;14.07;12.90;;;;;;;;;;5072971;28;20400;-64
2022/05/10 04:50:34;;;;;;;12.57;11.60;;;;;;;;;;5073036;28;20435;-63
2022/05/10 04:53:00;;;;;;;20.57;12.40;;;;;;;;;;5072963;28;20943;-63
2022/05/10 04:55:26;;;;;;;13.57;12.23;;;;;;;;;;5076682;28;20463;-63
2022/05/10 04:57:52;;;;;;;26.80;14.00;;;;;;;;;;5076774;28;20410;-62
2022/05/10 05:00:19;;;;;;;14.23;12.93;;;;;;;;;;5076660;28;20765;-62
2022/05/10 05:02:46;;;;;;;14.70;13.23;;;;;;;;;;5076632;28;20434;-62
2022/05/10 05:05:13;;;;;;;13.03;12.00;;;;;;;;;;5076513;28;20406;-62
2022/05/10 05:07:39;;;;;;;14.50;13.10;;;;;;;;;;5076429;28;20426;-62
2022/05/10 05:10:05;;;;;;;14.80;12.70;;;;;;;;;;5076450;28;20441;-60
2022/05/10 05:12:34;;;;;;;13.47;12.40;;;;;;;;;;5076228;28;20477;-61
2022/05/10 05:15:01;;;;;;;13.37;12.17;;;;;;;;;;5076388;28;20394;-60
2022/05/10 05:17:28;;;;;;;12.47;11.60;;;;;;;;;;5076283;28;20410;-61
2022/05/10 05:19:54;;;;;;;12.70;11.87;;;;;;;;;;5076261;28;20497;-62
2022/05/10 05:22:20;;;;;;;17.43;15.93;;;;;;;;;;5076254;28;20399;-61
2022/05/10 05:24:45;;;;;;;13.60;12.53;;;;;;;;;;5076120;28;20433;-61
2022/05/10 05:27:11;;;;;;;13.23;12.20;;;;;;;;;;5076062;28;20411;-62
2022/05/10 05:29:37;;;;;;;14.40;13.10;;;;;;;;;;5076063;28;20409;-62
2022/05/10 05:32:06;;;;;;;14.00;13.00;;;;;;;;;;5075928;28;20586;-62
2022/05/10 05:34:32;;;;;;;13.73;12.73;;;;;;;;;;5076019;28;20403;-61
2022/05/10 05:39:42;;;;;;;17.53;13.60;;;;;;;;;;5075624;28;20961;-61
2022/05/10 05:42:08;;;;;;;14.87;13.67;;;;;;;;;;5075826;28;20424;-61
2022/05/10 05:44:34;;;;;;;14.77;13.57;;;;;;;;;;5075846;28;20404;-61
2022/05/10 05:47:00;;;;;;;13.93;12.73;;;;;;;;;;5075714;28;20450;-61
2022/05/10 05:49:26;;;;;;;19.20;13.53;;;;;;;;;;5075774;28;20436;-61
2022/05/10 05:51:56;;;;;;;14.00;12.90;;;;;;;;;;5075577;28;20989;-62
2022/05/10 05:54:22;;;;;;;14.60;13.27;;;;;;;;;;5075673;28;20897;-62
2022/05/10 05:56:48;;;;;;;14.10;13.10;;;;;;;;;;5075775;28;20415;-62
2022/05/10 05:59:14;;;;;;;13.30;12.40;;;;;;;;;;5074193;28;20446;-62
2022/05/10 06:01:40;;;;;;;13.90;12.67;;;;;;;;;;5075517;28;20481;-62
2022/05/10 06:04:06;;;;;;;16.93;13.30;;;;;;;;;;5074077;28;20440;-61
2022/05/10 06:06:32;;;;;;;14.20;13.10;;;;;;;;;;5074523;28;20419;-61
2022/05/10 06:08:58;;;;;;;15.37;14.10;;;;;;;;;;5075359;28;20405;-61
2022/05/10 06:11:24;;;;;;;19.00;13.60;;;;;;;;;;5075180;28;20862;-61
2022/05/10 06:13:50;;;;;;;16.00;14.47;;;;;;;;;;5073879;28;20889;-62
2022/05/10 06:16:16;;;;;;;15.47;13.97;;;;;;;;;;5075115;28;20417;-62
2022/05/10 06:18:42;;;;;;;13.97;12.87;;;;;;;;;;5074943;28;20423;-62
2022/05/10 06:21:08;;;;;;;18.73;14.60;;;;;;;;;;5075003;28;20458;-61
2022/05/10 06:23:34;;;;;;;15.00;13.50;;;;;;;;;;5074872;28;20416;-61
2022/05/10 06:26:00;;;;;;;14.37;12.87;;;;;;;;;;5074803;28;20889;-61
2022/05/10 06:28:29;;;;;;;14.40;13.23;;;;;;;;;;5074846;28;20405;-61
2022/05/10 06:30:56;;;;;;;25.63;14.17;;;;;;;;;;5074808;28;20818;-61
2022/05/10 06:33:22;;;;;;;20.30;12.90;;;;;;;;;;5074765;28;20476;-61
2022/05/10 06:35:48;;;;;;;15.40;13.90;;;;;;;;;;5074776;28;20459;-62
2022/05/10 06:38:19;;;;;;;16.10;13.70;;;;;;;;;;5074866;28;20421;-61
2022/05/10 06:40:45;;;;;;;20.50;14.00;;;;;;;;;;5074597;28;20501;-61
2022/05/10 06:43:11;;;;;;;13.90;12.90;;;;;;;;;;5074736;28;20417;-61
2022/05/10 06:45:38;;;;;;;17.53;13.20;;;;;;;;;;5074503;28;20395;-61
2022/05/10 06:48:04;;;;;;;15.57;14.07;;;;;;;;;;5074750;28;20830;-61
2022/05/10 06:50:31;;;;;;;15.47;14.07;;;;;;;;;;5074736;28;20429;-61
2022/05/10 06:52:57;;;;;;;15.03;13.80;;;;;;;;;;5074313;28;20508;-61
2022/05/10 06:55:24;;;;;;;14.30;12.80;;;;;;;;;;5074431;28;20453;-60
2022/05/10 06:57:50;;;;;;;14.10;13.00;;;;;;;;;;5074209;28;20785;-61
2022/05/10 07:00:17;;;;;;;14.47;13.10;;;;;;;;;;5074283;28;20407;-61
2022/05/10 07:02:43;;;;;;;16.47;12.83;;;;;;;;;;5074590;28;20464;-61
2022/05/10 07:05:10;;;;;;;19.90;13.57;;;;;;;;;;5074182;28;20493;-62
2022/05/10 07:07:36;;;;;;;15.00;13.80;;;;;;;;;;5074169;28;20406;-61
2022/05/10 07:10:03;;;;;;;13.77;12.53;;;;;;;;;;5074388;28;20414;-61
2022/05/10 07:12:28;;;;;;;14.17;13.03;;;;;;;;;;5073979;28;20546;-61
2022/05/10 07:14:54;;;;;;;17.03;12.80;;;;;;;;;;5074033;28;20425;-61
2022/05/10 07:17:20;;;;;;;14.73;12.23;;;;;;;;;;5073932;28;20970;-61
2022/05/10 07:19:46;;;;;;;14.50;12.97;;;;;;;;;;5073904;28;20407;-61
2022/05/10 07:22:12;;;;;;;12.70;11.70;;;;;;;;;;5073869;28;20424;-62
2022/05/10 07:24:38;;;;;;;12.87;11.67;;;;;;;;;;5073823;28;20401;-60
2022/05/10 07:27:04;;;;;;;13.07;11.73;;;;;;;;;;5073822;28;20854;-62
2022/05/10 07:29:30;;;;;;;18.20;13.70;;;;;;;;;;5072512;28;20514;-62
2022/05/10 07:31:56;;;;;;;12.30;11.30;;;;;;;;;;5073689;28;20542;-62
2022/05/10 07:34:22;;;;;;;12.90;11.80;;;;;;;;;;5073930;28;20407;-61
2022/05/10 07:36:48;;;;;;;12.70;11.80;;;;;;;;;;5073949;28;20438;-61
2022/05/10 07:39:14;;;;;;;11.83;10.93;;;;;;;;;;5073604;28;20887;-61
2022/05/10 07:41:41;;;;;;;18.23;13.20;;;;;;;;;;5073423;28;20589;-62
2022/05/10 07:44:07;;;;;;;12.83;11.60;;;;;;;;;;5073662;28;20405;-61
2022/05/10 07:46:33;;;;;;;12.17;11.27;;;;;;;;;;5073695;28;20562;-62
2022/05/10 07:48:59;;;;;;;13.10;12.07;;;;;;;;;;5073590;28;20412;-62
2022/05/10 07:51:25;;;;;;;12.23;11.30;;;;;;;;;;5073578;28;20404;-61
2022/05/10 07:53:51;;;;;;;12.67;11.60;;;;;;;;;;5073550;28;20883;-61
2022/05/10 07:56:17;;;;;;;11.20;10.50;;;;;;;;;;5073379;28;20434;-62
2022/05/10 07:58:43;;;;;;;13.47;12.20;;;;;;;;;;5073711;28;20418;-62
2022/05/10 08:01:09;;;;;;;13.20;12.00;;;;;;;;;;5073401;28;20407;-62
2022/05/10 08:03:36;;;;;;;12.83;11.93;;;;;;;;;;5073431;28;20404;-63
2022/05/10 08:06:02;;;;;;;13.70;12.70;;;;;;;;;;5073433;28;20410;-62
2022/05/10 08:08:29;;;;;;;12.23;11.17;;;;;;;;;;5073420;28;20408;-62
2022/05/10 08:10:56;;;;;;;12.23;11.20;;;;;;;;;;5073359;28;20417;-62
2022/05/10 08:13:32;;;;;;;12.10;11.30;;;;;;;;;;5073456;28;20466;-63
2022/05/10 08:15:59;;;;;;;11.27;10.37;;;;;;;;;;5073560;28;20419;-62
2022/05/10 08:18:25;;;;;;;66.50;27.20;;;;;;;;;;5073587;28;20410;-63
2022/05/10 08:20:52;;;;;;;13.50;11.30;;;;;;;;;;5073327;28;20434;-62
2022/05/10 08:23:23;;;;;;;11.47;10.47;;;;;;;;;;5073328;28;20490;-63
2022/05/10 08:25:54;;;;;;;12.80;11.80;;;;;;;;;;5073420;28;20501;-62
2022/05/10 08:28:20;;;;;;;10.87;9.90;;;;;;;;;;5073650;28;20788;-62
2022/05/10 08:30:46;;;;;;;10.97;10.10;;;;;;;;;;5077458;28;20799;-61
2022/05/10 08:33:17;;;;;;;12.00;10.40;;;;;;;;;;5077110;28;20883;-61
2022/05/10 08:35:43;;;;;;;11.43;10.60;;;;;;;;;;5077141;28;20401;-61
2022/05/10 08:38:09;;;;;;;9.90;9.10;;;;;;;;;;5077076;28;20505;-61
2022/05/10 08:40:39;;;;;;;10.53;9.43;;;;;;;;;;5076910;28;20533;-61
2022/05/10 08:43:07;;;;;;;11.00;9.90;;;;;;;;;;5076942;28;20414;-61
2022/05/10 08:45:36;;;;;;;13.43;9.80;;;;;;;;;;5076960;28;20494;-62
2022/05/10 08:48:02;;;;;;;9.27;8.50;;;;;;;;;;5076892;28;20492;-61
2022/05/10 08:50:28;;;;;;;10.50;9.80;;;;;;;;;;5076849;28;20838;-63
2022/05/10 08:52:54;;;;;;;10.90;9.83;;;;;;;;;;5076778;28;20480;-62
2022/05/10 08:55:26;;;;;;;9.97;9.27;;;;;;;;;;5076804;28;20478;-63
2022/05/10 08:57:54;;;;;;;10.30;9.70;;;;;;;;;;5076647;28;20464;-61
2022/05/10 09:00:43;;;;;;;10.60;9.33;;;;;;;;;;5076645;28;20456;-64
2022/05/10 09:03:25;;;;;;;10.33;9.73;;;;;;;;;;5076123;28;20437;-65
2022/05/10 09:05:52;;;;;;;10.17;9.37;;;;;;;;;;5076657;28;20410;-65
2022/05/10 09:08:25;;;;;;;11.33;10.37;;;;;;;;;;5076541;28;20395;-64
2022/05/10 09:11:01;;;;;;;11.30;10.57;;;;;;;;;;5076418;28;20437;-62
2022/05/10 09:13:27;;;;;;;10.47;9.80;;;;;;;;;;5076541;28;20465;-63
2022/05/10 09:15:59;;;;;;;9.27;8.53;;;;;;;;;;5076441;28;20870;-62
2022/05/10 09:18:25;;;;;;;8.97;8.27;;;;;;;;;;5076471;28;20409;-61
2022/05/10 09:21:11;;;;;;;9.73;8.83;;;;;;;;;;5076335;28;20793;-63
2022/05/10 09:23:40;;;;;;;9.33;8.53;;;;;;;;;;5076003;28;20429;-62
2022/05/10 09:26:07;;;;;;;8.60;7.80;;;;;;;;;;5076170;28;20497;-62
2022/05/10 09:28:44;;;;;;;10.13;8.60;;;;;;;;;;5076168;28;20404;-61
2022/05/10 09:37:13;;;;;;;9.30;8.60;;;;;;;;;;5075759;28;20772;-62
2022/05/10 09:39:41;;;;;;;8.37;7.90;;;;;;;;;;5074852;28;20873;-62
2022/05/10 09:42:07;;;;;;;8.10;7.53;;;;;;;;;;5075046;28;20523;-62
2022/05/10 09:44:33;;;;;;;8.97;8.13;;;;;;;;;;5075850;28;20494;-62
2022/05/10 09:47:11;;;;;;;11.20;9.10;;;;;;;;;;5075792;28;20451;-61
2022/05/10 09:49:38;;;;;;;9.03;8.60;;;;;;;;;;5075753;28;20768;-62
2022/05/10 09:52:05;;;;;;;7.77;7.37;;;;;;;;;;5075704;28;20468;-61
2022/05/10 09:54:36;;;;;;;8.93;8.33;;;;;;;;;;5075715;28;20434;-62
2022/05/10 09:57:02;;;;;;;14.00;8.83;;;;;;;;;;5075519;28;20770;-61
2022/05/10 09:59:39;;;;;;;11.87;8.57;;;;;;;;;;5075638;28;20405;-61
2022/05/10 10:02:05;;;;;;;10.40;7.70;;;;;;;;;;5075567;28;20889;-61
2022/05/10 10:04:33;;;;;;;8.90;6.47;;;;;;;;;;5075474;28;20403;-62
2022/05/10 10:07:20;;;;;;;7.97;7.40;;;;;;;;;;5075418;28;20432;-63
2022/05/10 10:10:12;;;;;;;8.47;7.70;;;;;;;;;;5075643;28;20490;-61
2022/05/10 10:12:40;;;;;;;7.10;6.70;;;;;;;;;;5075191;28;20481;-62
2022/05/10 10:15:18;;;;;;;10.70;7.37;;;;;;;;;;5075288;28;20413;-61
2022/05/10 10:17:50;;;;;;;8.53;7.37;;;;;;;;;;5075246;28;20418;-62
2022/05/10 10:20:37;;;;;;;10.20;8.07;;;;;;;;;;5075214;28;20422;-61
2022/05/10 10:23:07;;;;;;;7.80;7.20;;;;;;;;;;5075066;28;20916;-61
2022/05/10 10:25:42;;;;;;;7.50;6.87;;;;;;;;;;5075130;28;20402;-62
2022/05/10 10:28:07;;;;;;;7.30;6.70;;;;;;;;;;5075055;28;20448;-62
2022/05/10 10:30:36;;;;;;;6.57;6.17;;;;;;;;;;5075100;28;20512;-63
2022/05/10 10:33:08;;;;;;;7.70;7.20;;;;;;;;;;5074883;28;20206;-63
2022/05/10 10:35:37;;;;;;;7.00;5.73;;;;;;;;;;5074893;28;20409;-63
2022/05/10 10:38:06;;;;;;;6.13;5.73;;;;;;;;;;5074756;28;20504;-64
2022/05/10 10:40:39;;;;;;;6.90;6.30;;;;;;;;;;5074613;28;20492;-62
2022/05/10 10:43:23;;;;;;;5.40;5.20;;;;;;;;;;5074638;28;20428;-61
2022/05/10 10:45:52;;;;;;;5.23;5.13;;;;;;;;;;5074975;28;20396;-62
2022/05/10 10:48:18;;;;;;;4.43;4.33;;;;;;;;;;5074532;28;20869;-62
2022/05/10 10:50:44;;;;;;;4.73;4.63;;;;;;;;;;5074645;28;20420;-63
2022/05/10 10:53:12;;;;;;;4.30;4.17;;;;;;;;;;5073967;28;20485;-64
2022/05/10 10:55:44;;;;;;;4.50;4.40;;;;;;;;;;5074628;28;20481;-64
2022/05/10 10:58:28;;;;;;;3.73;3.63;;;;;;;;;;5074245;28;20420;-65
2022/05/10 11:00:56;;;;;;;4.07;3.87;;;;;;;;;;5074284;28;20404;-63
2022/05/10 11:03:27;;;;;;;4.40;4.20;;;;;;;;;;5074167;28;20406;-63
2022/05/10 11:05:53;;;;;;;4.83;4.43;;;;;;;;;;5074161;28;20409;-64
2022/05/10 11:08:26;;;;;;;3.73;3.63;;;;;;;;;;5074051;28;20401;-64
2022/05/10 11:10:52;;;;;;;4.53;4.20;;;;;;;;;;5074090;28;20830;-64
2022/05/10 11:13:24;;;;;;;4.30;4.20;;;;;;;;;;5073847;28;20507;-64
2022/05/10 11:15:57;;;;;;;4.80;4.60;;;;;;;;;;5073978;28;20445;-63
2022/05/10 11:18:34;;;;;;;4.23;4.03;;;;;;;;;;5073970;28;20405;-64
2022/05/10 11:21:20;;;;;;;6.10;4.57;;;;;;;;;;5073880;28;20759;-64
2022/05/10 11:23:56;;;;;;;4.20;4.10;;;;;;;;;;5073822;28;20414;-65
2022/05/10 11:26:41;;;;;;;4.60;4.50;;;;;;;;;;5073711;28;20422;-64
2022/05/10 11:29:07;;;;;;;4.20;4.10;;;;;;;;;;5073657;28;20409;-64
2022/05/10 11:31:40;;;;;;;4.03;4.00;;;;;;;;;;5073671;28;20420;-63
2022/05/10 11:34:22;;;;;;;4.30;4.20;;;;;;;;;;5073758;28;20410;-63
2022/05/10 11:36:52;;;;;;;4.50;4.40;;;;;;;;;;5073798;28;20398;-64
2022/05/10 11:39:36;;;;;;;4.20;4.00;;;;;;;;;;5073945;28;20406;-63
2022/05/10 11:42:17;;;;;;;5.80;4.00;;;;;;;;;;5073629;28;20444;-64
2022/05/10 11:45:09;;;;;;;4.13;4.13;;;;;;;;;;5073670;28;20416;-67
2022/05/10 11:47:38;;;;;;;3.70;3.50;;;;;;;;;;5073249;28;20445;-63
2022/05/10 11:50:14;;;;;;;4.00;3.80;;;;;;;;;;5073382;28;20395;-63
2022/05/10 11:52:56;;;;;;;4.27;3.87;;;;;;;;;;5073432;28;20472;-63
2022/05/10 11:55:22;;;;;;;4.50;4.40;;;;;;;;;;5073861;28;20760;-63
2022/05/10 11:57:49;;;;;;;3.73;3.53;;;;;;;;;;5073653;28;20417;-63
2022/05/10 12:00:27;;;;;;;3.70;3.70;;;;;;;;;;5073492;28;20402;-68
2022/05/10 12:02:54;;;;;;;3.40;3.40;;;;;;;;;;5072997;28;20429;-64
2022/05/10 12:05:24;;;;;;;3.63;3.53;;;;;;;;;;5073169;28;20402;-63
2022/05/10 12:07:51;;;;;;;3.87;3.67;;;;;;;;;;5073436;28;20403;-63
2022/05/10 12:10:29;;;;;;;3.67;3.60;;;;;;;;;;5073589;28;20410;-62
2022/05/10 12:12:57;;;;;;;3.67;3.57;;;;;;;;;;5073658;28;20519;-64
2022/05/10 12:21:19;;;;;;;3.70;3.50;;;;;;;;;;5073525;28;20406;-64
2022/05/10 12:24:04;;;;;;;3.77;3.67;;;;;;;;;;5073391;28;20443;-65
2022/05/10 12:26:32;;;;;;;3.80;3.60;;;;;;;;;;5073335;28;20398;-63
2022/05/10 12:28:58;;;;;;;4.10;4.00;;;;;;;;;;5073129;28;20402;-62
2022/05/10 12:31:26;;;;;;;5.43;4.70;;;;;;;;;;5073145;28;20410;-64
2022/05/10 12:33:59;;;;;;;4.00;3.80;;;;;;;;;;5072989;28;20968;-65
2022/05/10 12:36:33;;;;;;;4.17;3.97;;;;;;;;;;5073018;28;20402;-63
2022/05/10 12:39:17;;;;;;;5.03;3.77;;;;;;;;;;5072986;28;20418;-64
2022/05/10 12:41:49;;;;;;;3.57;3.47;;;;;;;;;;5072754;28;20798;-68
2022/05/10 12:44:38;;;;;;;4.43;4.03;;;;;;;;;;5073127;28;20947;-68
2022/05/10 12:47:23;;;;;;;3.70;3.40;;;;;;;;;;5073200;28;20436;-64
2022/05/10 12:50:03;;;;;;;4.27;4.17;;;;;;;;;;5073083;28;20398;-71
2022/05/10 12:52:39;;;;;;;4.03;3.83;;;;;;;;;;5070044;28;21048;-67
2022/05/10 12:55:07;;;;;;;4.60;4.27;;;;;;;;;;5069379;28;20467;-66
2022/05/10 12:57:40;;;;;;;3.97;3.87;;;;;;;;;;5070079;28;20422;-68
2022/05/10 13:00:12;;;;;;;3.47;3.33;;;;;;;;;;5068517;28;20453;-70
2022/05/10 13:02:40;;;;;;;3.87;3.77;;;;;;;;;;5070720;28;20418;-65
2022/05/10 13:05:07;;;;;;;3.93;3.73;;;;;;;;;;5070325;28;20479;-64
2022/05/10 13:07:33;;;;;;;9.37;3.80;;;;;;;;;;5070199;28;20407;-63
2022/05/10 13:10:03;;;;;;;3.47;3.47;;;;;;;;;;5070953;28;20913;-61
2022/05/10 13:12:34;;;;;;;3.20;3.20;;;;;;;;;;5071204;28;20741;-63
2022/05/10 13:15:02;;;;;;;3.57;3.37;;;;;;;;;;5074202;28;20402;-68
2022/05/10 13:17:32;;;;;;;3.43;3.33;;;;;;;;;;5076239;28;20750;-63
2022/05/10 13:19:59;;;;;;;3.60;3.40;;;;;;;;;;5076218;28;20409;-65
2022/05/10 13:22:26;;;;;;;4.03;3.33;;;;;;;;;;5076306;28;20390;-63
2022/05/10 13:24:53;;;;;;;15.13;4.77;;;;;;;;;;5076268;28;20407;-65
2022/05/10 13:27:41;;;;;;;5.77;2.67;;;;;;;;;;5076066;28;20413;-64
2022/05/10 13:30:18;;;;;;;3.50;3.40;;;;;;;;;;5076417;28;20394;-64
2022/05/10 13:32:52;;;;;;;6.37;5.20;;;;;;;;;;5075960;28;20522;-66
2022/05/10 13:35:27;;;;;;;11.03;8.23;;;;;;;;;;5076069;28;20489;-62
2022/05/10 13:37:55;;;;;;;3.57;3.57;;;;;;;;;;5076200;28;20410;-67
2022/05/10 13:40:24;;;;;;;3.60;3.50;;;;;;;;;;5075766;28;20523;-63
2022/05/10 13:42:51;;;;;;;4.43;4.03;;;;;;;;;;5075715;28;20421;-63
2022/05/10 13:45:22;;;;;;;3.80;3.60;;;;;;;;;;5076131;28;20792;-65
2022/05/10 13:47:50;;;;;;;4.40;3.90;;;;;;;;;;5075861;28;20402;-63
2022/05/10 13:50:22;;;;;;;4.20;4.00;;;;;;;;;;5075731;28;20422;-70
2022/05/10 13:52:50;;;;;;;3.00;3.00;;;;;;;;;;5075858;28;20473;-70
2022/05/10 13:55:17;;;;;;;3.60;3.37;;;;;;;;;;5075635;28;20394;-70
2022/05/10 13:57:52;;;;;;;2.80;2.80;;;;;;;;;;5075890;28;20414;-68
2022/05/10 14:00:20;;;;;;;3.37;3.27;;;;;;;;;;5075504;28;20455;-69
2022/05/10 14:02:51;;;;;;;4.10;3.80;;;;;;;;;;5075547;28;20422;-64
2022/05/10 14:05:18;;;;;;;3.70;3.50;;;;;;;;;;5075377;28;20406;-63
2022/05/10 14:07:47;;;;;;;3.63;3.43;;;;;;;;;;5075410;28;20406;-62
2022/05/10 14:10:15;;;;;;;3.30;3.10;;;;;;;;;;5075321;28;20390;-65
2022/05/10 14:12:56;;;;;;;4.10;3.17;;;;;;;;;;5075213;28;20561;-64
2022/05/10 14:15:24;;;;;;;3.17;3.17;;;;;;;;;;5075232;28;20886;-62
2022/05/10 14:17:53;;;;;;;2.97;2.87;;;;;;;;;;5075243;28;20414;-63
2022/05/10 14:20:24;;;;;;;6.40;3.30;;;;;;;;;;5075107;28;20413;-63
2022/05/10 14:22:54;;;;;;;3.10;3.10;;;;;;;;;;5075053;28;20386;-63
2022/05/10 14:25:28;;;;;;;3.23;3.00;;;;;;;;;;5074942;28;20552;-64
2022/05/10 14:27:58;;;;;;;3.10;3.00;;;;;;;;;;5072998;28;20410;-62
2022/05/10 14:30:26;;;;;;;3.03;2.93;;;;;;;;;;5075012;28;20890;-65
2022/05/10 14:32:52;;;;;;;3.20;3.00;;;;;;;;;;5074885;28;20470;-63
2022/05/10 14:35:36;;;;;;;3.07;3.00;;;;;;;;;;5074637;28;20410;-63
2022/05/10 14:38:17;;;;;;;2.80;2.60;;;;;;;;;;5074762;28;20398;-63
2022/05/10 14:40:46;;;;;;;2.40;2.30;;;;;;;;;;5074617;28;20557;-64
2022/05/10 14:43:24;;;;;;;2.10;2.10;;;;;;;;;;5074679;28;20463;-64
2022/05/10 14:45:51;;;;;;;2.80;2.80;;;;;;;;;;5074825;28;20398;-63
2022/05/10 14:48:21;;;;;;;2.73;2.57;;;;;;;;;;5074848;28;20860;-63
2022/05/10 14:50:53;;;;;;;2.97;2.87;;;;;;;;;;5074557;28;20876;-62
2022/05/10 14:53:25;;;;;;;2.03;2.03;;;;;;;;;;5074680;28;20473;-63
2022/05/10 14:55:53;;;;;;;3.10;3.00;;;;;;;;;;5074539;28;20441;-62
2022/05/10 14:58:39;;;;;;;2.70;2.50;;;;;;;;;;5074199;28;20427;-62
2022/05/10 15:01:06;;;;;;;3.00;2.80;;;;;;;;;;5074279;28;20406;-62
2022/05/10 15:03:34;;;;;;;2.90;2.70;;;;;;;;;;5074344;28;20402;-63
2022/05/10 15:06:00;;;;;;;3.43;3.23;;;;;;;;;;5074353;28;20395;-63